Time;durP1;ratioP1;P1;durP2;ratioP2;P2;SDS_P1;SDS_P2;PMS_P1;PMS_P2;Temp;Humidity;BMP_temperature;BMP_pressure;BME280_temperature;BME280_humidity;BME280_pressure;Samples;Min_cycle;Max_cycle;Signal;HPM_P1;HPM_P2
2023/05/01 00:00:52;;;;;;;0.80;0.43;;;16.50;99.90;;;16.77;48.78;101325.56;6080450;22;97013;-44
2023/05/01 00:03:18;;;;;;;1.63;0.50;;;16.60;99.90;;;16.75;48.68;101317.66;6085698;22;97289;-43
2023/05/01 00:05:45;;;;;;;0.77;0.40;;;16.60;99.90;;;16.76;49.03;101316.72;6079669;23;97498;-42
2023/05/01 00:08:11;;;;;;;0.63;0.40;;;16.60;99.90;;;16.76;48.93;101306.06;6081882;22;97426;-42
2023/05/01 00:10:38;;;;;;;0.50;0.40;;;16.60;99.90;;;16.76;49.05;101308.72;6080947;22;97648;-42
2023/05/01 00:13:04;;;;;;;0.53;0.43;;;16.60;99.90;;;16.76;49.08;101307.88;6056628;23;97348;-42
2023/05/01 00:15:31;;;;;;;0.90;0.50;;;16.50;99.90;;;16.76;49.04;101299.88;6083723;22;98429;-41
2023/05/01 00:17:57;;;;;;;0.70;0.43;;;16.50;99.90;;;16.71;48.98;101305.44;6079027;23;102555;-41
2023/05/01 00:20:27;;;;;;;1.57;0.67;;;16.50;99.90;;;16.70;48.95;101303.72;6082379;22;97343;-42
2023/05/01 00:22:53;;;;;;;0.77;0.50;;;16.50;99.90;;;16.70;49.32;101302.88;6080260;22;96873;-40
2023/05/01 00:25:20;;;;;;;1.87;1.23;;;16.40;99.90;;;16.70;49.27;101297.53;6095134;22;97561;-41
2023/05/01 00:27:47;;;;;;;2.40;0.70;;;16.40;99.90;;;16.65;49.24;101295.09;6091704;23;97126;-41
2023/05/01 00:30:13;;;;;;;2.90;0.80;;;16.40;99.90;;;16.67;49.17;101293.22;6094962;22;97022;-42
2023/05/01 00:32:39;;;;;;;1.80;0.80;;;16.40;99.90;;;16.68;49.14;101284.28;6090919;22;97158;-42
2023/05/01 00:35:05;;;;;;;1.53;0.87;;;16.40;99.90;;;16.69;49.34;101286.03;6093712;23;97813;-43
2023/05/01 00:37:31;;;;;;;0.80;0.60;;;16.50;99.90;;;16.70;49.33;101285.06;6093074;22;97292;-41
2023/05/01 00:39:57;;;;;;;0.43;0.43;;;16.50;99.90;;;16.74;49.07;101283.97;6093954;22;99574;-45
2023/05/01 00:42:22;;;;;;;0.53;0.33;;;16.60;99.90;;;16.73;49.19;101286.72;6094380;23;97105;-42
2023/05/01 00:44:48;;;;;;;0.83;0.50;;;16.50;99.90;;;16.72;49.24;101280.53;6088371;22;110945;-42
2023/05/01 00:47:14;;;;;;;0.80;0.60;;;16.50;99.90;;;16.72;49.33;101291.19;6092768;22;108079;-41
2023/05/01 00:49:42;;;;;;;1.20;0.77;;;16.50;99.90;;;16.70;49.33;101276.22;6088991;22;97166;-43
2023/05/01 00:52:08;;;;;;;1.80;0.80;;;16.50;99.90;;;16.65;49.66;101273.78;6095007;23;97203;-42
2023/05/01 00:54:35;;;;;;;1.67;0.70;;;16.40;99.90;;;16.69;49.53;101266.50;6089640;22;97158;-43
2023/05/01 00:57:02;;;;;;;0.80;0.50;;;16.50;99.90;;;16.69;49.38;101269.19;6096336;23;97372;-41
2023/05/01 00:59:28;;;;;;;1.20;0.70;;;16.50;99.90;;;16.71;49.43;101265.50;6067879;23;96796;-42
2023/05/01 01:01:54;;;;;;;1.30;0.53;;;16.50;99.90;;;16.70;49.54;101261.09;6090588;22;98573;-42
2023/05/01 01:04:20;;;;;;;1.10;0.60;;;16.50;99.90;;;16.73;49.44;101262.75;6095466;22;97214;-43
2023/05/01 01:07:12;;;;;;;1.30;0.70;;;16.50;99.90;;;16.73;49.25;101250.28;6091675;22;96578;-45
2023/05/01 01:09:46;;;;;;;1.83;0.70;;;16.50;99.90;;;16.76;49.53;101251.91;6089689;22;97063;-39
2023/05/01 01:12:42;;;;;;;0.70;0.53;;;16.60;99.90;;;16.70;49.68;101245.13;6095644;22;97163;-41
2023/05/01 01:15:33;;;;;;;2.17;0.97;;;16.50;99.90;;;16.72;49.75;101248.56;6064958;23;102988;-44
2023/05/01 01:18:16;;;;;;;1.20;0.80;;;16.50;99.90;;;16.69;49.54;101243.41;6091391;22;101375;-42
2023/05/01 01:21:26;;;;;;;0.40;0.40;;;16.50;99.90;;;16.71;49.41;101245.97;6065307;23;97492;-42
2023/05/01 01:24:44;;;;;;;0.80;0.77;;;16.50;99.90;;;16.71;49.46;101244.19;6065540;23;97553;-40
2023/05/01 01:27:40;;;;;;;2.40;0.70;;;16.50;99.90;;;16.72;49.60;101237.03;6065579;23;104552;-41
2023/05/01 01:30:34;;;;;;;0.37;0.37;;;16.50;99.90;;;16.73;49.52;101228.97;6093083;22;102259;-41
2023/05/01 01:33:41;;;;;;;1.77;0.40;;;16.50;99.90;;;16.76;49.25;101227.94;6066607;23;96968;-42
2023/05/01 01:36:16;;;;;;;1.10;0.87;;;16.60;99.90;;;16.74;49.48;101235.16;6066240;23;97563;-45
2023/05/01 01:38:46;;;;;;;1.10;0.80;;;16.60;99.90;;;16.72;49.43;101232.56;6091643;22;97294;-41
2023/05/01 01:41:20;;;;;;;1.27;1.00;;;16.50;99.90;;;16.66;50.20;101227.56;6093758;23;97296;-43
2023/05/01 01:44:00;;;;;;;1.27;0.90;;;16.40;99.90;;;16.64;49.63;101224.09;6088933;23;97084;-42
2023/05/01 01:46:26;;;;;;;2.17;1.00;;;16.30;99.90;;;16.62;49.82;101220.63;6095642;22;98549;-43
2023/05/01 01:48:55;;;;;;;1.27;0.93;;;16.30;99.90;;;16.60;50.03;101206.53;6091416;22;104977;-45
2023/05/01 01:51:22;;;;;;;1.10;0.73;;;16.30;99.90;;;16.59;49.99;101218.13;6095347;22;97122;-43
2023/05/01 01:53:53;;;;;;;1.70;0.33;;;16.30;99.90;;;16.60;49.67;101212.72;6093177;22;97949;-41
2023/05/01 01:56:20;;;;;;;2.80;0.80;;;16.30;99.90;;;16.62;49.94;101204.66;6096446;23;96696;-42
2023/05/01 01:58:47;;;;;;;0.63;0.43;;;16.40;99.90;;;16.62;49.83;101213.50;6090799;22;97073;-43
2023/05/01 02:01:15;;;;;;;1.33;0.40;;;16.40;99.90;;;16.66;49.71;101200.91;6069966;23;96998;-43
2023/05/01 02:03:44;;;;;;;0.57;0.50;;;16.50;99.90;;;16.68;49.52;101198.19;6087319;22;97179;-41
2023/05/01 02:06:12;;;;;;;0.60;0.37;;;16.50;99.90;;;16.70;49.72;101202.50;6069705;23;97166;-40
2023/05/01 02:08:40;;;;;;;0.60;0.47;;;16.50;99.90;;;16.74;49.60;101198.72;6067026;23;97565;-40
2023/05/01 02:11:07;;;;;;;1.00;0.60;;;16.60;99.90;;;16.77;49.42;101198.56;6092782;23;97115;-40
2023/05/01 02:13:35;;;;;;;1.37;0.43;;;16.60;99.90;;;16.80;49.17;101193.09;6090690;22;108313;-40
2023/05/01 02:16:03;;;;;;;0.40;0.30;;;16.70;99.90;;;16.83;49.03;101187.59;6096988;23;97001;-41
2023/05/01 02:18:30;;;;;;;0.30;0.30;;;16.70;99.90;;;16.89;48.98;101186.41;6094990;22;97838;-41
2023/05/01 02:20:57;;;;;;;2.20;0.87;;;16.80;99.90;;;16.90;48.94;101183.63;6079203;22;103394;-47
2023/05/01 02:23:28;;;;;;;1.53;0.90;;;16.80;99.90;;;16.86;49.27;101182.09;6074946;23;97186;-41
2023/05/01 02:25:56;;;;;;;0.90;0.50;;;16.70;99.90;;;16.84;49.30;101173.31;6086910;22;96901;-48
2023/05/01 02:28:26;;;;;;;0.77;0.50;;;16.60;99.90;;;16.83;49.16;101171.59;6093056;22;97074;-48
2023/05/01 02:30:52;;;;;;;1.03;0.80;;;16.60;99.90;;;16.84;49.05;101172.47;6061039;22;97723;-45
2023/05/01 02:33:17;;;;;;;1.30;0.60;;;16.70;99.90;;;16.80;49.42;101170.91;6063624;22;97101;-46
2023/05/01 02:35:46;;;;;;;4.10;0.73;;;16.60;99.90;;;16.76;49.29;101172.00;6061025;23;96742;-49
2023/05/01 02:38:14;;;;;;;0.40;0.30;;;16.50;99.90;;;16.74;49.50;101161.44;6064268;22;97367;-49
2023/05/01 02:40:46;;;;;;;2.70;1.73;;;16.50;99.90;;;16.74;49.38;101166.75;6057794;22;97166;-47
2023/05/01 02:43:16;;;;;;;2.43;1.33;;;16.50;99.90;;;16.70;49.56;101164.34;6064278;23;97426;-53
2023/05/01 02:45:43;;;;;;;2.23;1.10;;;16.40;99.90;;;16.66;49.59;101155.63;6056282;23;97238;-45
2023/05/01 02:48:12;;;;;;;2.43;1.30;;;16.40;99.90;;;16.63;49.62;101153.09;6059569;23;97649;-47
2023/05/01 02:50:41;;;;;;;0.87;0.67;;;16.30;99.90;;;16.62;49.89;101148.72;6059191;22;97292;-49
2023/05/01 02:53:08;;;;;;;1.10;0.70;;;16.30;99.90;;;16.59;49.95;101143.56;6062656;23;97096;-48
2023/05/01 02:55:34;;;;;;;2.37;0.90;;;16.30;99.90;;;16.60;49.95;101147.94;6056122;23;97492;-48
2023/05/01 02:58:01;;;;;;;0.47;0.47;;;16.30;99.90;;;16.58;49.75;101139.19;6064526;22;99746;-46
2023/05/01 03:00:27;;;;;;;0.60;0.50;;;16.30;99.90;;;16.59;49.92;101140.91;6064330;22;97557;-46
2023/05/01 03:02:53;;;;;;;0.47;0.47;;;16.30;99.90;;;16.61;49.94;101141.69;6062150;22;97327;-45
2023/05/01 03:05:19;;;;;;;1.13;0.60;;;16.40;99.90;;;16.67;49.57;101125.44;6062919;23;96694;-47
2023/05/01 03:07:46;;;;;;;0.80;0.40;;;16.50;99.90;;;16.74;49.34;101124.13;6057315;22;97914;-43
2023/05/01 03:10:13;;;;;;;1.30;0.53;;;16.70;99.90;;;16.77;49.40;101113.31;6064291;23;97266;-52
2023/05/01 03:12:39;;;;;;;2.23;1.20;;;16.70;99.90;;;16.77;49.56;101123.97;6060297;22;97109;-48
2023/05/01 03:15:05;;;;;;;1.83;0.80;;;16.60;99.90;;;16.76;49.24;101116.91;6063266;22;97039;-47
2023/05/01 03:17:31;;;;;;;1.10;0.70;;;16.60;99.90;;;16.75;49.51;101109.88;6063316;22;99152;-53
2023/05/01 03:19:57;;;;;;;1.63;0.77;;;16.50;99.90;;;16.73;49.62;101117.09;6062682;22;98515;-48
2023/05/01 03:22:23;;;;;;;4.47;1.43;;;16.50;99.90;;;16.69;49.63;101115.53;6065034;22;97203;-49
2023/05/01 03:24:49;;;;;;;1.00;0.70;;;16.40;99.90;;;16.67;49.73;101112.09;6061267;22;98570;-45
2023/05/01 03:27:15;;;;;;;2.70;1.13;;;16.40;99.90;;;16.64;49.51;101109.59;6063774;23;97949;-45
2023/05/01 03:29:41;;;;;;;0.77;0.40;;;16.40;99.90;;;16.63;49.81;101106.03;6060760;22;100078;-48
2023/05/01 03:32:07;;;;;;;1.07;0.90;;;16.40;99.90;;;16.63;49.88;101099.84;6087143;22;97353;-45
2023/05/01 03:34:33;;;;;;;1.17;0.53;;;16.40;99.90;;;16.61;49.78;101101.72;6091750;22;97009;-44
2023/05/01 03:36:58;;;;;;;0.73;0.57;;;16.30;99.90;;;16.63;49.98;101094.50;6095744;22;98035;-48
2023/05/01 03:39:24;;;;;;;1.17;0.70;;;16.40;99.90;;;16.65;49.67;101097.97;6094800;22;98936;-47
2023/05/01 03:41:50;;;;;;;1.50;0.90;;;16.40;99.90;;;16.62;49.73;101098.13;6090539;23;97172;-48
2023/05/01 03:44:16;;;;;;;1.17;0.67;;;16.40;99.90;;;16.59;49.89;101098.28;6094296;22;117028;-44
2023/05/01 03:46:41;;;;;;;1.33;0.70;;;16.30;99.90;;;16.58;50.01;101096.56;6089988;22;97454;-45
2023/05/01 03:49:07;;;;;;;1.40;0.90;;;16.30;99.90;;;16.56;49.79;101098.47;6093754;23;118362;-49
2023/05/01 03:51:33;;;;;;;1.43;0.80;;;16.30;99.90;;;16.55;50.01;101091.41;6091943;22;96649;-47
2023/05/01 03:53:59;;;;;;;4.23;1.13;;;16.30;99.90;;;16.49;49.86;101091.72;6094464;22;99322;-44
2023/05/01 03:56:25;;;;;;;0.67;0.57;;;16.20;99.90;;;16.49;50.05;101091.72;6067594;23;97633;-45
2023/05/01 03:58:51;;;;;;;1.07;0.73;;;16.20;99.90;;;16.49;50.16;101087.28;6091730;22;97110;-44
2023/05/01 04:01:18;;;;;;;1.20;1.10;;;16.20;99.90;;;16.50;50.14;101089.00;6094363;23;96972;-47
2023/05/01 04:03:44;;;;;;;0.70;0.57;;;16.20;99.90;;;16.48;50.21;101084.69;6091335;22;97617;-51
2023/05/01 04:06:12;;;;;;;0.57;0.53;;;16.20;99.90;;;16.50;50.12;101082.81;6092850;22;100243;-47
2023/05/01 04:08:37;;;;;;;0.53;0.50;;;16.30;99.90;;;16.56;50.12;101077.16;6091194;22;97044;-51
2023/05/01 04:11:03;;;;;;;1.97;0.53;;;16.40;99.90;;;16.60;49.95;101084.03;6068359;23;115850;-50
2023/05/01 04:13:29;;;;;;;2.20;0.80;;;16.50;99.90;;;16.68;49.61;101087.19;6094406;22;97261;-49
2023/05/01 04:15:58;;;;;;;0.73;0.40;;;16.60;99.90;;;16.71;49.73;101087.00;6090979;23;98981;-50
2023/05/01 04:18:23;;;;;;;0.80;0.73;;;16.60;99.90;;;16.70;49.26;101087.97;6093773;23;98228;-48
2023/05/01 04:20:50;;;;;;;1.83;0.67;;;16.60;99.90;;;16.71;49.43;101075.50;6091053;22;96923;-47
2023/05/01 04:23:16;;;;;;;0.80;0.53;;;16.60;99.90;;;16.67;49.74;101080.16;6068596;23;97002;-47
2023/05/01 04:25:42;;;;;;;1.03;0.80;;;16.50;99.90;;;16.62;49.42;101084.81;6088838;22;97615;-44
2023/05/01 04:28:11;;;;;;;1.93;0.90;;;16.40;99.90;;;16.60;49.97;101073.38;6093427;22;112468;-51
2023/05/01 04:30:37;;;;;;;0.93;0.50;;;16.30;99.90;;;16.57;49.87;101068.22;6091707;22;97326;-46
2023/05/01 04:33:09;;;;;;;1.10;0.70;;;16.30;99.90;;;16.56;49.97;101077.16;6094339;22;111243;-48
2023/05/01 04:35:35;;;;;;;1.30;0.67;;;16.30;99.90;;;16.54;50.07;101079.06;6090409;23;97897;-48
2023/05/01 04:38:01;;;;;;;1.47;1.00;;;16.30;99.90;;;16.51;49.72;101076.56;6095799;22;97556;-48
2023/05/01 04:40:27;;;;;;;1.40;0.70;;;16.20;99.90;;;16.51;50.06;101079.22;6093309;22;98063;-46
2023/05/01 04:42:53;;;;;;;1.80;0.90;;;16.20;99.90;;;16.51;49.94;101079.22;6085902;22;113792;-47
2023/05/01 04:45:18;;;;;;;1.10;0.80;;;16.20;99.90;;;16.52;49.97;101080.94;6093037;23;97141;-46
2023/05/01 04:47:44;;;;;;;1.30;0.70;;;16.30;99.90;;;16.55;50.02;101072.78;6090967;22;105444;-45
2023/05/01 04:50:10;;;;;;;1.07;0.60;;;16.30;99.90;;;16.60;49.82;101078.72;6094737;22;97356;-51
2023/05/01 04:52:36;;;;;;;0.60;0.50;;;16.40;99.90;;;16.67;49.92;101080.16;6089822;22;97297;-44
2023/05/01 04:55:02;;;;;;;0.73;0.40;;;16.60;99.90;;;16.76;49.61;101079.63;6091806;23;96891;-48
2023/05/01 04:57:28;;;;;;;0.63;0.60;;;16.70;99.90;;;16.84;49.11;101082.75;6094682;23;97081;-47
2023/05/01 04:59:54;;;;;;;1.00;0.63;;;16.80;99.90;;;16.94;49.13;101081.31;6089184;22;97129;-50
2023/05/01 05:02:20;;;;;;;0.50;0.50;;;17.00;99.90;;;17.00;48.95;101076.56;6068849;23;97022;-51
2023/05/01 05:04:46;;;;;;;1.00;0.60;;;17.10;99.90;;;17.08;48.67;101074.34;6092734;22;97022;-47
2023/05/01 05:07:12;;;;;;;1.00;0.87;;;17.20;99.90;;;17.15;48.29;101073.03;6096161;23;97238;-45
2023/05/01 05:09:38;;;;;;;0.93;0.60;;;17.20;99.90;;;17.20;48.31;101077.16;6092761;22;96502;-44
2023/05/01 05:12:04;;;;;;;1.10;0.90;;;17.30;99.90;;;17.25;48.15;101082.25;6096761;22;97256;-45
2023/05/01 05:14:30;;;;;;;0.67;0.47;;;17.30;99.90;;;17.30;48.01;101080.16;6095192;23;97172;-47
2023/05/01 05:16:56;;;;;;;0.43;0.43;;;17.40;99.90;;;17.32;47.98;101080.94;6092805;22;99291;-52
2023/05/01 05:19:21;;;;;;;0.60;0.53;;;17.40;99.90;;;17.34;47.80;101079.03;6094819;22;104105;-47
2023/05/01 05:21:47;;;;;;;0.70;0.50;;;17.50;99.90;;;17.37;47.93;101076.22;6092370;22;97544;-51
2023/05/01 05:24:13;;;;;;;1.00;0.60;;;17.50;99.90;;;17.38;47.66;101077.94;6097211;22;98592;-51
2023/05/01 05:26:39;;;;;;;0.90;0.43;;;17.50;99.90;;;17.39;47.69;101074.31;6093212;22;99024;-49
2023/05/01 05:29:05;;;;;;;0.90;0.50;;;17.50;99.90;;;17.40;47.68;101076.03;6098897;23;97040;-45
2023/05/01 05:31:31;;;;;;;0.70;0.70;;;17.50;99.90;;;17.41;47.51;101076.91;6096091;22;97002;-51
2023/05/01 05:33:57;;;;;;;0.50;0.50;;;17.50;99.90;;;17.42;47.51;101074.13;6068701;23;102184;-45
2023/05/01 05:36:23;;;;;;;0.70;0.60;;;17.50;99.90;;;17.42;47.46;101078.63;6097156;22;97503;-48
2023/05/01 05:38:49;;;;;;;1.03;0.53;;;17.50;99.90;;;17.43;47.49;101078.53;6093013;22;96918;-51
2023/05/01 05:41:16;;;;;;;0.73;0.60;;;17.50;99.90;;;17.43;47.67;101075.84;6095852;22;97312;-47
2023/05/01 05:43:42;;;;;;;0.50;0.50;;;17.50;99.90;;;17.44;47.65;101074.91;6094415;22;98000;-48
2023/05/01 05:46:08;;;;;;;0.90;0.63;;;17.60;99.90;;;17.47;47.33;101076.53;6097849;23;98190;-45
2023/05/01 05:48:33;;;;;;;0.87;0.60;;;17.60;99.90;;;17.51;47.33;101078.09;6094417;22;97023;-47
2023/05/01 05:50:59;;;;;;;0.90;0.80;;;17.60;99.90;;;17.51;47.21;101075.44;6098022;23;114476;-47
2023/05/01 05:53:25;;;;;;;0.43;0.40;;;17.70;99.90;;;17.54;47.27;101076.09;6100546;22;96743;-42
2023/05/01 05:55:51;;;;;;;2.10;0.67;;;17.70;99.90;;;17.54;47.16;101068.09;6098312;22;97435;-45
2023/05/01 05:58:20;;;;;;;0.83;0.70;;;17.70;99.90;;;17.55;47.28;101072.47;6100950;22;96882;-46
2023/05/01 06:00:49;;;;;;;1.17;0.53;;;17.70;99.90;;;17.53;46.97;101070.84;6095927;22;97054;-47
2023/05/01 06:03:15;;;;;;;1.90;0.90;;;17.70;99.90;;;17.52;47.14;101075.34;6099960;22;97797;-46
2023/05/01 06:05:44;;;;;;;0.97;0.50;;;17.70;99.90;;;17.57;47.10;101076.88;6094077;22;101666;-47
2023/05/01 06:08:11;;;;;;;1.47;1.00;;;17.70;99.90;;;17.52;47.13;101064.66;6072111;23;97333;-53
2023/05/01 06:10:40;;;;;;;0.93;0.47;;;17.70;99.90;;;17.55;47.25;101069.81;6095065;22;97449;-45
2023/05/01 06:13:07;;;;;;;1.03;0.50;;;17.70;99.90;;;17.58;47.17;101073.25;6098956;22;97230;-43
2023/05/01 06:15:34;;;;;;;0.60;0.60;;;17.70;99.90;;;17.51;47.12;101073.63;6093948;22;97145;-50
2023/05/01 06:17:59;;;;;;;0.73;0.50;;;17.70;99.90;;;17.53;47.01;101076.19;6048745;23;96912;-49
2023/05/01 06:20:25;;;;;;;0.50;0.37;;;17.70;99.90;;;17.53;47.31;101070.84;6097710;22;96977;-45
2023/05/01 06:22:51;;;;;;;0.73;0.60;;;17.70;99.90;;;17.52;47.01;101072.66;6096709;22;98432;-50
2023/05/01 06:25:18;;;;;;;0.93;0.70;;;17.70;99.90;;;17.51;47.14;101070.94;6100134;23;97152;-47
2023/05/01 06:27:43;;;;;;;0.87;0.83;;;17.70;99.90;;;17.48;47.31;101071.09;6097087;22;97220;-44
2023/05/01 06:30:10;;;;;;;0.70;0.47;;;17.70;99.90;;;17.51;46.98;101070.09;6101494;22;97031;-49
2023/05/01 06:32:36;;;;;;;0.77;0.70;;;17.70;99.90;;;17.48;47.06;101065.75;6094280;22;97012;-48
2023/05/01 06:35:01;;;;;;;0.70;0.70;;;17.70;99.90;;;17.52;47.02;101070.00;6099485;22;97870;-44
2023/05/01 06:37:27;;;;;;;1.10;0.60;;;17.70;99.90;;;17.55;47.08;101069.81;6096392;22;97303;-47
2023/05/01 06:39:53;;;;;;;1.07;0.60;;;17.70;99.90;;;17.54;46.84;101068.09;6091219;22;108656;-50
2023/05/01 06:42:20;;;;;;;2.60;0.80;;;17.80;99.90;;;17.52;45.74;101064.66;6096112;22;98384;-44
2023/05/01 06:44:46;;;;;;;0.80;0.53;;;17.70;99.90;;;17.57;46.70;101068.88;6091983;23;97467;-48
2023/05/01 06:47:12;;;;;;;0.60;0.53;;;17.70;99.90;;;17.52;47.14;101069.13;6095963;22;97315;-43
2023/05/01 06:49:37;;;;;;;0.93;0.80;;;17.70;99.90;;;17.50;46.51;101066.56;6093198;22;97362;-47
2023/05/01 06:52:03;;;;;;;0.57;0.57;;;17.70;99.90;;;17.57;47.09;101071.53;6096353;23;97270;-48
2023/05/01 06:54:29;;;;;;;1.23;0.60;;;17.70;99.90;;;17.53;46.52;101065.53;6096150;23;96985;-45
2023/05/01 06:56:55;;;;;;;1.83;1.10;;;17.70;99.90;;;17.54;44.42;101060.09;6092655;22;96896;-45
2023/05/01 06:59:21;;;;;;;0.67;0.50;;;17.70;99.90;;;17.45;47.07;101060.63;6097863;22;101860;-44
2023/05/01 07:01:47;;;;;;;0.87;0.60;;;17.60;99.90;;;17.55;46.83;101058.28;6095487;22;97076;-45
2023/05/01 07:04:13;;;;;;;0.97;0.70;;;17.60;99.90;;;17.54;45.65;101057.44;6099688;22;96851;-49
2023/05/01 07:06:38;;;;;;;1.83;0.80;;;17.70;99.90;;;17.52;44.28;101064.66;6098756;23;109407;-43
2023/05/01 07:09:05;;;;;;;1.20;0.90;;;17.60;99.90;;;17.48;44.99;101063.09;6105317;22;117060;-42
2023/05/01 07:11:32;;;;;;;2.03;0.90;;;17.60;99.90;;;17.45;43.93;101057.94;6100261;22;97367;-49
2023/05/01 07:14:00;;;;;;;1.10;1.00;;;17.60;99.90;;;17.35;47.45;101059.41;6095437;22;101379;-46
2023/05/01 07:16:26;;;;;;;1.33;0.90;;;17.60;99.90;;;17.43;46.17;101059.84;6095205;23;97234;-51
2023/05/01 07:18:52;;;;;;;1.03;0.60;;;17.60;99.90;;;17.38;46.36;101051.28;6091171;22;96941;-43
2023/05/01 07:21:17;;;;;;;0.53;0.53;;;17.60;99.90;;;17.35;47.54;101056.75;6095080;23;97527;-50
2023/05/01 07:23:43;;;;;;;0.70;0.67;;;17.60;99.90;;;17.37;47.13;101054.88;6092129;22;98037;-47
2023/05/01 07:26:09;;;;;;;1.40;0.80;;;17.60;99.90;;;17.41;45.11;101048.41;6093283;22;97342;-50
2023/05/01 07:28:35;;;;;;;0.73;0.67;;;17.60;99.90;;;17.45;45.79;101052.63;6087657;22;104947;-49
2023/05/01 07:31:01;;;;;;;1.23;0.50;;;17.60;99.90;;;17.44;47.13;101055.38;6082246;23;104254;-49
2023/05/01 07:33:27;;;;;;;1.03;0.70;;;17.60;99.90;;;17.48;46.50;101055.09;6080975;22;97140;-48
2023/05/01 07:35:53;;;;;;;0.90;0.63;;;17.60;99.90;;;17.46;47.13;101056.16;6078255;22;97449;-48
2023/05/01 07:38:18;;;;;;;1.47;0.80;;;17.70;99.90;;;17.46;47.22;101051.66;6082446;22;97960;-45
2023/05/01 07:40:44;;;;;;;1.43;0.90;;;17.70;99.90;;;17.50;47.06;101053.22;6079274;22;97174;-52
2023/05/01 07:43:10;;;;;;;1.93;0.90;;;17.70;99.90;;;17.58;46.78;101035.91;6083100;22;97148;-48
2023/05/01 07:45:40;;;;;;;1.40;0.90;;;17.80;99.90;;;17.57;46.59;101045.72;6074702;22;97368;-48
2023/05/01 07:48:06;;;;;;;1.33;0.70;;;17.80;99.90;;;17.59;43.88;101038.47;6079257;23;97801;-47
2023/05/01 07:50:31;;;;;;;0.77;0.73;;;17.70;99.90;;;17.59;43.58;101042.97;6075472;22;99238;-52
2023/05/01 07:52:57;;;;;;;0.90;0.80;;;17.70;99.90;;;17.58;46.67;101038.56;6083109;22;100815;-47
2023/05/01 07:55:24;;;;;;;0.50;0.50;;;17.70;99.90;;;17.60;46.57;101034.00;6081081;22;97319;-48
2023/05/01 07:57:50;;;;;;;0.60;0.60;;;17.70;99.90;;;17.54;46.72;101040.56;6074131;22;97222;-53
2023/05/01 08:00:16;;;;;;;0.80;0.40;;;17.70;99.90;;;17.42;46.83;101042.13;6029661;23;97581;-55
2023/05/01 08:02:42;;;;;;;1.13;0.90;;;17.70;99.90;;;17.53;46.50;101038.84;6079113;22;98086;-53
2023/05/01 08:05:09;;;;;;;0.50;0.50;;;17.70;99.90;;;17.48;47.03;101044.44;6081400;23;97766;-45
2023/05/01 08:07:35;;;;;;;1.20;0.60;;;17.70;99.90;;;17.60;46.20;101039.34;6077530;22;97497;-50
2023/05/01 08:10:01;;;;;;;0.80;0.77;;;17.70;99.90;;;17.59;46.43;101042.97;6081212;22;97938;-49
2023/05/01 08:12:28;;;;;;;0.90;0.50;;;17.70;99.90;;;17.45;46.71;101041.94;6080941;23;97271;-48
2023/05/01 08:14:54;;;;;;;0.60;0.60;;;17.70;99.90;;;17.47;47.09;101037.38;6078486;23;97705;-51
2023/05/01 08:17:20;;;;;;;1.63;1.10;;;17.70;99.90;;;17.44;46.97;101039.38;6079923;23;97477;-50
2023/05/01 08:19:46;;;;;;;1.77;0.93;;;17.70;99.90;;;17.54;46.44;101041.44;6074328;22;97689;-54
2023/05/01 08:22:13;;;;;;;0.90;0.70;;;17.80;99.90;;;17.60;45.28;101045.53;6080020;22;97329;-54
2023/05/01 08:24:39;;;;;;;1.10;0.83;;;17.80;99.90;;;17.61;44.98;101047.25;6072387;23;96837;-48
2023/05/01 08:27:05;;;;;;;0.93;0.50;;;17.80;99.90;;;17.50;46.73;101039.91;6083048;23;97310;-51
2023/05/01 08:29:31;;;;;;;3.67;1.10;;;17.80;99.90;;;17.58;43.58;101035.91;6081913;22;103495;-45
2023/05/01 08:31:57;;;;;;;1.03;0.77;;;17.80;99.90;;;17.63;45.95;101028.47;6077047;22;118615;-52
2023/05/01 08:34:23;;;;;;;0.83;0.53;;;17.80;99.90;;;17.52;46.55;101038.00;6077917;22;97119;-47
2023/05/01 08:36:49;;;;;;;0.93;0.70;;;17.70;99.90;;;17.48;46.83;101036.44;6075988;22;97329;-45
2023/05/01 08:39:15;;;;;;;3.33;0.70;;;17.70;99.90;;;17.43;47.20;101035.84;6080470;23;97204;-53
2023/05/01 08:41:46;;;;;;;0.93;0.60;;;17.70;99.90;;;17.50;46.67;101037.22;6078891;22;97348;-48
2023/05/01 08:44:17;;;;;;;0.60;0.53;;;17.80;99.90;;;17.60;46.50;101034.00;6080817;23;97819;-50
2023/05/01 08:47:17;;;;;;;1.50;0.60;;;17.80;99.90;;;17.68;46.14;101034.41;6077740;22;97070;-46
2023/05/01 08:49:45;;;;;;;0.90;0.63;;;17.90;99.90;;;17.65;46.51;101031.91;6051294;23;97391;-50
2023/05/01 08:52:13;;;;;;;1.03;0.70;;;17.90;99.90;;;17.69;46.22;101033.50;6055959;23;97785;-48
2023/05/01 08:54:42;;;;;;;0.73;0.70;;;17.90;99.90;;;17.67;46.53;101032.72;6076906;22;97406;-46
2023/05/01 08:57:11;;;;;;;0.87;0.70;;;17.90;99.90;;;17.60;46.58;101031.34;6082270;23;97539;-51
2023/05/01 08:59:38;;;;;;;1.00;0.70;;;17.90;99.90;;;17.76;43.83;101029.50;6076125;22;98438;-50
2023/05/01 09:02:07;;;;;;;2.07;1.00;;;17.90;99.90;;;17.86;43.45;101030.69;6080420;23;97328;-46
2023/05/01 09:04:39;;;;;;;1.07;0.70;;;18.00;99.60;;;17.79;46.14;101030.22;6077004;22;97320;-49
2023/05/01 09:07:05;;;;;;;1.47;0.43;;;18.00;99.90;;;17.83;46.12;101033.53;6081916;22;97400;-54
2023/05/01 09:09:31;;;;;;;1.40;1.13;;;18.00;99.90;;;17.93;44.05;101031.16;6081129;22;98849;-50
2023/05/01 09:12:28;;;;;;;1.30;0.70;;;18.10;99.90;;;17.87;44.07;101032.41;6074786;22;101811;-45
2023/05/01 09:14:55;;;;;;;1.43;1.17;;;18.00;99.90;;;17.91;45.51;101025.91;6066655;22;97355;-45
2023/05/01 09:17:23;;;;;;;1.10;0.90;;;18.10;99.90;;;17.97;44.77;101022.91;6081822;23;97077;-51
2023/05/01 09:19:49;;;;;;;0.90;0.83;;;18.10;99.90;;;18.03;43.50;101032.34;6076430;22;97064;-46
2023/05/01 09:22:17;;;;;;;1.37;0.70;;;18.10;99.60;;;18.03;44.52;101033.19;6081717;23;98904;-49
2023/05/01 09:24:44;;;;;;;1.47;0.83;;;18.10;99.90;;;18.03;43.16;101038.53;6076160;23;97204;-48
2023/05/01 09:27:13;;;;;;;3.10;1.27;;;18.10;99.40;;;18.01;42.52;101034.25;6077672;22;97123;-54
2023/05/01 09:29:42;;;;;;;1.87;1.07;;;18.10;99.00;;;17.99;42.54;101037.00;6076351;22;96985;-52
2023/05/01 09:32:27;;;;;;;1.07;0.70;;;18.00;98.80;;;17.99;43.38;101031.66;6083178;22;97537;-49
2023/05/01 09:34:55;;;;;;;2.63;1.13;;;18.10;99.50;;;17.96;43.06;101031.84;6077364;22;97853;-49
2023/05/01 09:37:27;;;;;;;2.57;0.97;;;18.00;99.20;;;17.94;43.21;101039.09;6063633;23;97146;-49
2023/05/01 09:40:13;;;;;;;1.13;0.90;;;18.00;99.40;;;17.92;43.54;101038.31;6090436;23;98100;-47
2023/05/01 09:42:53;;;;;;;1.80;1.57;;;17.90;99.80;;;17.93;42.65;101036.50;6089708;22;97289;-48
2023/05/01 09:45:19;;;;;;;3.20;1.00;;;17.90;98.80;;;17.93;42.19;101039.16;6091675;22;96979;-46
2023/05/01 09:47:46;;;;;;;2.20;0.90;;;18.00;98.40;;;17.94;42.92;101031.09;6089294;22;97229;-49
2023/05/01 09:50:29;;;;;;;2.10;1.10;;;18.00;99.00;;;17.98;43.82;101024.59;6094894;23;97704;-48
2023/05/01 09:52:55;;;;;;;1.10;0.83;;;18.10;99.60;;;18.01;42.94;101029.75;6092818;22;97233;-47
2023/05/01 09:55:22;;;;;;;6.50;1.07;;;18.10;99.10;;;18.02;42.43;101023.47;6092663;22;97017;-52
2023/05/01 09:57:48;;;;;;;2.17;1.20;;;18.10;98.60;;;18.03;42.25;101027.84;6089505;22;97246;-49
2023/05/01 10:00:15;;;;;;;4.67;1.40;;;18.10;98.50;;;18.05;43.83;101028.59;6097098;22;97548;-46
2023/05/01 10:02:45;;;;;;;2.70;0.97;;;18.20;99.00;;;18.04;44.99;101015.34;6092792;22;96973;-48
2023/05/01 10:05:11;;;;;;;1.70;1.00;;;18.20;99.90;;;18.10;44.45;101013.19;6094995;22;97365;-46
2023/05/01 10:07:38;;;;;;;4.20;1.30;;;18.20;99.90;;;18.14;44.41;101009.38;6092655;22;97536;-47
2023/05/01 10:10:21;;;;;;;3.10;1.30;;;18.30;99.90;;;18.22;44.60;101016.03;6096099;22;97127;-49
2023/05/01 10:12:47;;;;;;;4.07;1.23;;;18.40;99.90;;;18.23;44.37;101012.44;6092124;22;97492;-43
2023/05/01 10:15:14;;;;;;;2.97;1.20;;;18.40;99.90;;;18.25;44.31;101016.72;6096475;23;97115;-47
2023/05/01 10:17:42;;;;;;;2.13;0.93;;;18.40;99.80;;;18.28;44.29;101015.66;6092091;22;97228;-48